Time;durP1;ratioP1;P1;durP2;ratioP2;P2;SDS_P1;SDS_P2;PMS_P1;PMS_P2;Temp;Humidity;BMP_temperature;BMP_pressure;BME280_temperature;BME280_humidity;BME280_pressure;Samples;Min_cycle;Max_cycle;Signal;HPM_P1;HPM_P2
2022/03/13 00:00:24;;;;;;;3.40;3.10;;;16.50;45.80;17.60;100844.00;;;;5048658;28;20217;-47
2022/03/13 00:02:53;;;;;;;3.30;3.10;;;16.50;45.70;17.50;100849.00;;;;5059845;28;20278;-46
2022/03/13 00:05:18;;;;;;;3.30;3.00;;;16.50;45.70;17.50;100847.00;;;;5048194;28;20373;-47
2022/03/13 00:07:45;;;;;;;3.13;2.90;;;16.40;45.60;17.50;100844.00;;;;5047851;28;20174;-47
2022/03/13 00:10:10;;;;;;;3.30;3.00;;;16.50;45.70;17.50;100833.00;;;;5048385;28;20198;-47
2022/03/13 00:12:38;;;;;;;2.97;2.77;;;16.40;45.60;17.50;100833.00;;;;5052072;28;20173;-47
2022/03/13 00:15:09;;;;;;;2.90;2.70;;;16.40;45.60;17.50;100829.00;;;;5068815;28;20220;-48
2022/03/13 00:17:34;;;;;;;3.30;3.00;;;16.40;45.60;17.50;100825.00;;;;5067846;28;20315;-46
2022/03/13 00:20:02;;;;;;;2.80;2.60;;;16.40;45.60;17.50;100830.00;;;;5069714;28;20638;-46
2022/03/13 00:22:30;;;;;;;3.27;3.03;;;16.40;45.70;17.50;100830.00;;;;5069780;28;20209;-46
2022/03/13 00:24:56;;;;;;;3.20;3.00;;;16.40;45.70;17.50;100832.00;;;;5067763;28;20196;-49
2022/03/13 00:27:21;;;;;;;3.10;2.90;;;16.40;45.70;17.50;100844.00;;;;5066420;28;20270;-48
2022/03/13 00:29:48;;;;;;;3.00;2.80;;;16.40;45.70;17.40;100832.00;;;;5067807;28;20208;-45
2022/03/13 00:32:13;;;;;;;2.93;2.73;;;16.30;45.60;17.40;100844.00;;;;5068081;28;20208;-48
2022/03/13 00:34:39;;;;;;;3.33;2.77;;;16.30;45.60;17.40;100835.00;;;;5067771;28;20224;-51
2022/03/13 00:37:05;;;;;;;3.00;2.80;;;16.30;45.50;17.40;100829.00;;;;5069819;28;20189;-46
2022/03/13 00:39:30;;;;;;;3.27;3.03;;;16.30;45.60;17.40;100829.00;;;;5068569;28;20209;-46
2022/03/13 00:41:56;;;;;;;3.23;2.97;;;16.30;45.60;17.40;100826.00;;;;5067978;28;20568;-48
2022/03/13 00:44:22;;;;;;;3.30;3.00;;;16.30;45.50;17.40;100824.00;;;;5067906;28;20268;-51
2022/03/13 00:46:48;;;;;;;3.00;2.80;;;16.30;45.60;17.40;100829.00;;;;5067345;28;20180;-47
2022/03/13 00:49:14;;;;;;;3.07;2.87;;;16.30;46.20;17.40;100762.00;;;;5067437;28;20343;-47
2022/03/13 00:51:39;;;;;;;2.97;2.77;;;16.20;45.50;17.40;100827.00;;;;5067761;28;20639;-47
2022/03/13 00:54:05;;;;;;;3.23;3.00;;;16.20;45.50;17.30;100815.00;;;;5067562;28;20166;-47
2022/03/13 00:56:31;;;;;;;3.20;3.00;;;16.20;46.10;17.30;100817.00;;;;5067448;28;20185;-46
2022/03/13 00:58:58;;;;;;;3.70;2.90;;;16.20;45.40;17.30;100815.00;;;;5067538;28;20617;-47
2022/03/13 01:01:23;;;;;;;3.20;3.00;;;16.20;45.40;17.30;100805.00;;;;5067652;28;20197;-47
2022/03/13 01:03:52;;;;;;;3.37;3.07;;;16.30;45.40;17.30;100809.00;;;;5069577;28;20185;-47
2022/03/13 01:06:19;;;;;;;3.30;3.10;;;16.20;45.40;17.30;100812.00;;;;5082800;28;20212;-52
2022/03/13 01:08:46;;;;;;;3.23;2.97;;;16.20;45.30;17.30;100801.00;;;;5081797;28;20182;-47
2022/03/13 01:11:19;;;;;;;3.07;2.87;;;16.20;45.30;17.30;100792.00;;;;5073410;28;20185;-46
2022/03/13 01:13:45;;;;;;;3.00;2.80;;;16.10;45.30;17.30;100796.00;;;;5068550;28;20154;-45
2022/03/13 01:16:37;;;;;;;2.93;2.73;;;16.10;45.20;17.30;100789.00;;;;5067016;28;20708;-48
2022/03/13 01:19:03;;;;;;;3.00;2.80;;;16.10;45.30;17.20;100784.00;;;;5069022;28;20193;-46
2022/03/13 01:21:30;;;;;;;3.03;2.83;;;16.10;45.20;17.20;100779.00;;;;5067544;28;20282;-45
2022/03/13 01:24:05;;;;;;;3.00;2.80;;;16.10;45.30;17.20;100770.00;;;;5067603;28;20166;-46
2022/03/13 01:26:34;;;;;;;3.23;3.03;;;16.10;45.30;17.20;100779.00;;;;5066590;28;20150;-47
2022/03/13 01:29:01;;;;;;;3.40;3.10;;;16.10;45.20;17.10;100760.00;;;;5081902;28;20173;-47
2022/03/13 01:31:29;;;;;;;3.07;2.87;;;16.10;45.20;17.20;100738.00;;;;5068032;28;20185;-48
2022/03/13 01:33:58;;;;;;;3.10;2.90;;;16.10;45.20;17.20;100775.00;;;;5066983;28;20205;-45
2022/03/13 01:36:24;;;;;;;3.27;3.00;;;16.10;45.20;17.20;100766.00;;;;5066545;28;20269;-47
2022/03/13 01:38:56;;;;;;;3.10;2.90;;;16.00;45.10;17.20;100763.00;;;;5066618;28;20254;-46
2022/03/13 01:41:27;;;;;;;3.07;2.87;;;16.00;45.10;17.20;100759.00;;;;5067017;28;20212;-47
2022/03/13 01:43:53;;;;;;;3.40;3.10;;;16.00;45.10;17.10;100757.00;;;;5067110;28;20182;-46
2022/03/13 01:46:19;;;;;;;3.53;3.23;;;16.10;45.10;17.10;100742.00;;;;5066475;28;20189;-45
2022/03/13 01:49:03;;;;;;;3.40;2.97;;;16.00;45.10;17.10;100745.00;;;;5066669;28;20166;-46
2022/03/13 01:51:30;;;;;;;3.47;3.20;;;16.00;45.10;17.10;100742.00;;;;5066714;28;20162;-47
2022/03/13 01:54:01;;;;;;;3.50;3.20;;;16.00;45.10;17.10;100740.00;;;;5067213;28;20201;-47
2022/03/13 01:56:27;;;;;;;3.10;2.90;;;16.00;45.10;17.10;100731.00;;;;5066708;28;20158;-44
2022/03/13 01:58:54;;;;;;;3.30;3.10;;;15.90;45.00;17.10;100736.00;;;;5066547;28;20540;-47
2022/03/13 02:01:21;;;;;;;3.20;3.00;;;16.00;45.00;17.10;100732.00;;;;5066879;28;20679;-47
2022/03/13 02:03:47;;;;;;;3.40;3.20;;;15.90;45.00;17.10;100731.00;;;;5069565;28;20646;-45
2022/03/13 02:06:13;;;;;;;3.60;3.30;;;15.90;44.90;17.10;100718.00;;;;5070419;28;20228;-46
2022/03/13 02:08:39;;;;;;;3.50;3.20;;;15.90;44.90;17.10;100717.00;;;;5070601;28;20219;-46
2022/03/13 02:11:05;;;;;;;3.60;3.30;;;15.90;44.80;17.10;100722.00;;;;5070850;28;20248;-47
2022/03/13 02:13:34;;;;;;;3.40;3.20;;;15.90;44.80;17.00;100719.00;;;;5070995;28;20530;-47
2022/03/13 02:16:00;;;;;;;3.50;3.20;;;15.90;44.80;17.00;100713.00;;;;5070250;28;20220;-47
2022/03/13 02:18:26;;;;;;;3.40;3.10;;;15.90;45.20;17.00;100719.00;;;;5070690;28;20720;-48
2022/03/13 02:20:52;;;;;;;3.50;3.20;;;15.80;44.70;17.00;100708.00;;;;5070331;28;20283;-44
2022/03/13 02:23:26;;;;;;;3.53;3.23;;;15.80;44.70;17.00;100720.00;;;;5069454;28;20197;-45
2022/03/13 02:25:55;;;;;;;3.67;3.37;;;15.80;44.80;17.00;100703.00;;;;5068901;28;20185;-46
2022/03/13 02:28:25;;;;;;;4.00;3.70;;;15.80;44.80;17.00;100695.00;;;;5068670;28;20170;-47
2022/03/13 02:30:54;;;;;;;3.30;3.10;;;15.80;44.80;17.00;100701.00;;;;5070551;28;20153;-48
2022/03/13 02:33:20;;;;;;;3.90;3.60;;;15.80;44.80;16.70;100707.00;;;;5068869;28;20208;-48
2022/03/13 02:35:57;;;;;;;3.60;3.30;;;15.80;44.60;17.00;100702.00;;;;5069666;28;20705;-48
2022/03/13 02:38:27;;;;;;;3.80;3.50;;;15.80;44.60;16.90;100705.00;;;;5069616;28;20701;-49
2022/03/13 02:40:53;;;;;;;3.87;3.57;;;15.80;44.70;16.90;100689.00;;;;5069874;28;20178;-49
2022/03/13 02:43:19;;;;;;;3.70;3.40;;;15.70;44.50;16.90;100703.00;;;;5068460;28;20193;-48
2022/03/13 02:45:45;;;;;;;3.70;3.40;;;15.80;44.60;16.90;100696.00;;;;5069599;28;20201;-46
2022/03/13 02:48:11;;;;;;;3.70;3.40;;;15.70;44.50;16.90;100691.00;;;;5069572;28;20240;-45
2022/03/13 02:50:38;;;;;;;3.73;3.43;;;15.70;44.50;16.90;100694.00;;;;5069960;28;20223;-47
2022/03/13 02:53:03;;;;;;;3.80;3.50;;;15.70;44.50;16.90;100695.00;;;;5072452;28;20228;-47
2022/03/13 02:55:30;;;;;;;3.63;3.33;;;15.70;44.50;16.90;100693.00;;;;5072379;28;20193;-47
2022/03/13 02:57:56;;;;;;;3.50;3.27;;;15.70;44.50;16.70;100683.00;;;;5069273;28;20311;-46
2022/03/13 03:00:36;;;;;;;3.80;3.50;;;15.60;44.40;16.90;100695.00;;;;5069924;28;20166;-46
2022/03/13 03:03:02;;;;;;;3.70;3.40;;;15.70;44.50;16.80;100686.00;;;;5068146;28;20201;-46
2022/03/13 03:05:27;;;;;;;3.70;3.40;;;15.60;44.40;16.80;100672.00;;;;5068879;28;20569;-47
2022/03/13 03:07:54;;;;;;;3.67;3.37;;;15.60;44.40;16.80;100686.00;;;;5084210;28;20178;-47
2022/03/13 03:10:20;;;;;;;4.10;3.80;;;15.60;44.40;16.80;100675.00;;;;5069610;28;20173;-46
2022/03/13 03:12:45;;;;;;;3.67;3.37;;;15.60;44.40;16.80;100689.00;;;;5069475;28;20173;-46
2022/03/13 03:15:11;;;;;;;3.67;3.37;;;15.60;44.40;16.80;100674.00;;;;5068418;28;20193;-46
2022/03/13 03:17:37;;;;;;;3.60;3.30;;;15.60;44.40;16.80;100674.00;;;;5068772;28;20630;-46
2022/03/13 03:20:05;;;;;;;3.57;3.27;;;15.60;44.40;16.70;100687.00;;;;5069175;28;20174;-47
2022/03/13 03:22:31;;;;;;;3.70;3.40;;;15.60;44.40;16.70;100684.00;;;;5069473;28;20198;-48
2022/03/13 03:24:57;;;;;;;3.97;3.67;;;15.60;44.40;16.70;100676.00;;;;5068995;28;20186;-46
2022/03/13 03:27:22;;;;;;;3.60;3.30;;;15.60;44.40;16.70;100676.00;;;;5068816;28;20162;-46
2022/03/13 03:29:48;;;;;;;3.90;3.60;;;15.50;44.30;16.70;100676.00;;;;5068811;28;20589;-48
2022/03/13 03:32:14;;;;;;;3.40;3.10;;;15.50;44.20;16.70;100678.00;;;;5069154;28;20178;-47
2022/03/13 03:34:39;;;;;;;3.70;3.40;;;15.50;44.20;16.70;100677.00;;;;5069166;28;20198;-46
2022/03/13 03:37:05;;;;;;;3.73;3.43;;;15.50;44.30;16.70;100676.00;;;;5070968;28;20181;-48
2022/03/13 03:39:31;;;;;;;3.70;3.40;;;15.50;44.20;16.70;100663.00;;;;5071787;28;20177;-47
2022/03/13 03:41:58;;;;;;;3.90;3.60;;;15.50;44.30;16.70;100669.00;;;;5071159;28;20198;-46
2022/03/13 03:44:23;;;;;;;3.63;3.33;;;15.50;44.30;16.60;100667.00;;;;5067861;28;20201;-46
2022/03/13 03:46:50;;;;;;;3.73;3.43;;;15.50;44.20;16.60;100660.00;;;;5053482;28;20594;-46
2022/03/13 03:49:16;;;;;;;3.83;3.53;;;15.50;44.20;16.60;100672.00;;;;5048935;28;20217;-46
2022/03/13 03:51:43;;;;;;;3.47;3.17;;;15.50;44.10;16.60;100664.00;;;;5049057;28;20171;-45
2022/03/13 03:54:08;;;;;;;3.67;3.37;;;15.50;44.10;16.60;100672.00;;;;5050182;28;20733;-46
2022/03/13 03:56:34;;;;;;;3.90;3.60;;;15.40;44.00;16.60;100679.00;;;;5050926;28;20367;-47
2022/03/13 03:59:00;;;;;;;3.90;3.60;;;15.40;43.90;16.60;100665.00;;;;5050318;28;20186;-46
2022/03/13 04:01:26;;;;;;;3.80;3.50;;;15.40;44.60;16.60;100672.00;;;;5047813;28;20174;-46
2022/03/13 04:03:51;;;;;;;3.80;3.50;;;15.40;43.90;16.50;100674.00;;;;5051255;28;20170;-46
2022/03/13 04:06:19;;;;;;;3.70;3.40;;;15.40;43.90;16.50;100680.00;;;;5050072;28;20248;-47
2022/03/13 04:08:45;;;;;;;3.87;3.57;;;15.40;43.90;16.50;100674.00;;;;5048775;28;20712;-46
2022/03/13 04:11:12;;;;;;;3.80;3.50;;;15.30;43.80;16.50;100675.00;;;;5047400;28;20185;-47
2022/03/13 04:13:38;;;;;;;3.70;3.30;;;15.40;43.90;16.50;100688.00;;;;5048735;28;20182;-48
2022/03/13 04:16:06;;;;;;;3.57;3.27;;;15.40;43.90;16.50;100683.00;;;;5047755;28;20202;-47
2022/03/13 04:18:32;;;;;;;3.60;3.30;;;15.30;43.70;16.50;100687.00;;;;5047639;28;20654;-47
2022/03/13 04:20:59;;;;;;;3.80;3.50;;;15.30;43.70;16.50;100697.00;;;;5048436;28;20182;-46
2022/03/13 04:23:26;;;;;;;3.20;3.00;;;15.30;43.70;16.50;100684.00;;;;5048293;28;20285;-48
2022/03/13 04:25:52;;;;;;;3.77;3.47;;;15.30;43.70;16.40;100679.00;;;;5046829;28;20566;-47
2022/03/13 04:28:18;;;;;;;4.27;3.87;;;15.30;43.70;16.40;100659.00;;;;5049728;28;20183;-46
2022/03/13 04:30:44;;;;;;;3.60;3.30;;;15.30;43.60;16.40;100684.00;;;;5050621;28;20183;-53
2022/03/13 04:33:10;;;;;;;3.20;3.00;;;15.30;43.80;16.40;100670.00;;;;5051133;28;20182;-46
2022/03/13 04:35:36;;;;;;;3.60;3.30;;;15.30;43.70;16.40;100682.00;;;;5049818;28;20256;-46
2022/03/13 04:38:02;;;;;;;3.80;3.50;;;15.20;43.60;16.40;100678.00;;;;5049659;28;20174;-45
2022/03/13 04:40:28;;;;;;;3.67;3.33;;;15.30;44.30;16.30;100676.00;;;;5048369;28;20197;-46
2022/03/13 04:42:53;;;;;;;4.47;3.80;;;15.30;43.80;16.30;100679.00;;;;5049953;28;20737;-48
2022/03/13 04:45:20;;;;;;;3.70;3.40;;;15.30;43.70;16.30;100686.00;;;;5060578;28;20202;-55
2022/03/13 04:47:46;;;;;;;3.90;3.57;;;15.20;43.50;16.30;100692.00;;;;5058265;28;20639;-46
2022/03/13 04:50:12;;;;;;;5.03;3.60;;;15.20;43.50;16.30;100683.00;;;;5047898;28;20178;-47
2022/03/13 04:52:37;;;;;;;4.20;3.63;;;15.20;43.40;16.30;100683.00;;;;5047422;28;20182;-46
2022/03/13 04:55:05;;;;;;;3.70;3.40;;;15.20;43.50;16.30;100677.00;;;;5047112;28;20194;-47
2022/03/13 04:57:30;;;;;;;4.53;3.90;;;15.20;43.30;16.30;100676.00;;;;5045257;28;20175;-49
2022/03/13 04:59:56;;;;;;;3.97;3.67;;;15.20;43.20;16.30;100668.00;;;;5046436;28;20162;-48
2022/03/13 05:02:22;;;;;;;4.80;4.13;;;15.10;43.00;16.20;100684.00;;;;5046794;28;20628;-46
2022/03/13 05:04:49;;;;;;;4.43;4.03;;;15.10;42.60;16.20;100678.00;;;;5047750;28;20210;-48
2022/03/13 05:07:17;;;;;;;4.47;4.07;;;15.20;42.50;16.20;100663.00;;;;5046607;28;20176;-48
2022/03/13 05:09:42;;;;;;;5.90;4.17;;;15.10;42.40;16.20;100672.00;;;;5047147;28;20219;-46
2022/03/13 05:12:10;;;;;;;4.40;4.00;;;15.10;42.50;16.20;100684.00;;;;5047333;28;20877;-47
2022/03/13 05:14:36;;;;;;;5.57;3.80;;;15.10;42.50;16.20;100683.00;;;;5047042;28;20213;-46
2022/03/13 05:17:03;;;;;;;4.57;4.17;;;15.10;42.70;16.20;100681.00;;;;5046311;28;20174;-46
2022/03/13 05:19:28;;;;;;;4.40;4.00;;;15.10;42.60;16.20;100672.00;;;;5047001;28;20640;-48
2022/03/13 05:21:55;;;;;;;4.57;3.90;;;15.10;42.70;16.20;100663.00;;;;5047224;28;20255;-47
2022/03/13 05:24:20;;;;;;;6.97;4.03;;;15.10;42.70;16.20;100666.00;;;;5047145;28;20198;-48
2022/03/13 05:26:46;;;;;;;5.13;3.80;;;15.10;42.80;16.10;100666.00;;;;5046186;28;20843;-47
2022/03/13 05:29:12;;;;;;;9.80;4.00;;;15.10;42.80;16.20;100663.00;;;;5046809;28;20182;-46
2022/03/13 05:31:39;;;;;;;8.77;4.00;;;15.10;42.90;16.10;100672.00;;;;5046464;28;20174;-47
2022/03/13 05:34:05;;;;;;;5.10;4.20;;;15.00;42.80;16.10;100663.00;;;;5047036;28;20174;-48
2022/03/13 05:36:31;;;;;;;7.70;4.40;;;15.00;42.80;16.10;100655.00;;;;5045401;28;20489;-48
2022/03/13 05:38:57;;;;;;;6.13;3.90;;;15.00;42.80;16.10;100672.00;;;;5046886;28;20190;-47
2022/03/13 05:41:22;;;;;;;5.57;4.20;;;15.00;42.90;16.10;100667.00;;;;5047194;28;20410;-48
2022/03/13 05:43:49;;;;;;;6.33;3.87;;;15.00;43.00;16.10;100676.00;;;;5047712;28;20210;-47
2022/03/13 05:46:15;;;;;;;6.03;4.03;;;15.00;42.90;16.10;100659.00;;;;5064318;28;20232;-47
2022/03/13 05:48:41;;;;;;;6.13;3.80;;;15.00;43.00;15.80;100671.00;;;;5063530;28;20824;-49
2022/03/13 05:51:07;;;;;;;7.37;3.80;;;15.00;43.00;16.10;100678.00;;;;5054803;28;20175;-47
2022/03/13 05:53:32;;;;;;;8.80;3.93;;;15.00;43.00;16.10;100671.00;;;;5046388;28;20639;-49
2022/03/13 05:55:58;;;;;;;6.40;3.93;;;15.00;43.00;16.10;100675.00;;;;5046240;28;20198;-47
2022/03/13 05:58:24;;;;;;;4.83;3.70;;;15.00;43.20;16.10;100671.00;;;;5045673;28;20186;-48
2022/03/13 06:00:54;;;;;;;5.17;3.77;;;15.00;43.20;16.10;100676.00;;;;5045585;28;20225;-47
2022/03/13 06:03:21;;;;;;;6.37;4.10;;;15.00;43.20;16.10;100679.00;;;;5046692;28;20220;-45
2022/03/13 06:05:48;;;;;;;5.97;3.83;;;14.90;43.10;16.10;100686.00;;;;5045940;28;20536;-46
2022/03/13 06:08:14;;;;;;;5.43;3.53;;;14.90;43.20;16.10;100683.00;;;;5045820;28;20190;-47
2022/03/13 06:10:40;;;;;;;5.43;3.53;;;14.90;43.20;16.10;100691.00;;;;5046136;28;20183;-46
2022/03/13 06:13:05;;;;;;;4.97;3.63;;;14.90;43.20;16.00;100689.00;;;;5055294;28;20272;-47
2022/03/13 06:15:31;;;;;;;5.73;3.63;;;14.90;43.10;16.00;100693.00;;;;5046750;28;20194;-47
2022/03/13 06:17:58;;;;;;;4.93;3.83;;;14.90;43.20;16.00;100696.00;;;;5045908;28;20178;-46
2022/03/13 06:20:23;;;;;;;5.10;3.40;;;14.90;43.20;16.00;100703.00;;;;5045329;28;20166;-46
2022/03/13 06:22:49;;;;;;;6.83;3.87;;;14.90;43.20;16.00;100698.00;;;;5046387;28;20715;-46
2022/03/13 06:25:16;;;;;;;3.70;3.40;;;14.80;43.10;16.00;100710.00;;;;5046097;28;20592;-48
2022/03/13 06:27:42;;;;;;;4.63;3.53;;;14.90;43.20;16.00;100718.00;;;;5045434;28;20719;-47
2022/03/13 06:30:13;;;;;;;4.87;3.30;;;14.90;43.20;16.00;100718.00;;;;5046495;28;20183;-46
2022/03/13 06:32:49;;;;;;;4.77;3.60;;;14.90;43.20;16.00;100715.00;;;;5046514;28;20170;-48
2022/03/13 06:35:17;;;;;;;3.60;3.30;;;14.90;43.20;16.00;100728.00;;;;5046273;28;20201;-46
2022/03/13 06:37:43;;;;;;;3.63;3.13;;;14.90;43.20;16.00;100709.00;;;;5046161;28;20210;-53
2022/03/13 06:40:10;;;;;;;4.43;3.73;;;14.80;43.10;16.00;100716.00;;;;5064758;28;20187;-44
2022/03/13 06:42:36;;;;;;;3.60;3.30;;;14.90;43.30;16.00;100714.00;;;;5046880;28;20198;-50
2022/03/13 06:45:03;;;;;;;3.50;3.20;;;14.80;43.10;16.00;100719.00;;;;5046287;28;20204;-46
2022/03/13 06:47:28;;;;;;;3.73;3.33;;;14.80;43.20;16.00;100715.00;;;;5045809;28;20177;-47
2022/03/13 06:49:54;;;;;;;3.43;3.13;;;14.80;43.20;16.00;100711.00;;;;5049993;28;20158;-46
2022/03/13 06:52:20;;;;;;;5.23;3.50;;;14.80;43.20;15.90;100648.00;;;;5049682;28;20574;-45
2022/03/13 06:54:47;;;;;;;3.40;3.10;;;14.80;43.20;15.90;100716.00;;;;5049191;28;20209;-47
2022/03/13 06:57:16;;;;;;;3.97;3.23;;;14.80;43.20;15.90;100722.00;;;;5049338;28;20185;-47
2022/03/13 06:59:42;;;;;;;4.27;3.30;;;14.80;43.30;15.90;100716.00;;;;5049075;28;20218;-47
2022/03/13 07:02:09;;;;;;;4.17;3.20;;;14.80;43.20;15.90;100723.00;;;;5049699;28;20271;-46
2022/03/13 07:04:35;;;;;;;3.63;3.33;;;14.80;43.20;15.90;100711.00;;;;5050128;28;20559;-47
2022/03/13 07:07:01;;;;;;;4.10;3.17;;;14.80;43.20;15.80;100709.00;;;;5048289;28;20174;-49
2022/03/13 07:09:27;;;;;;;3.50;3.20;;;14.80;43.20;15.90;100716.00;;;;5049662;28;20166;-43
2022/03/13 07:11:52;;;;;;;3.20;2.90;;;14.80;43.20;15.90;100712.00;;;;5049298;28;20839;-46
2022/03/13 07:14:19;;;;;;;3.70;3.40;;;14.80;43.20;15.90;100707.00;;;;5047829;28;20273;-46
2022/03/13 07:16:45;;;;;;;4.37;3.37;;;14.80;43.20;15.90;100712.00;;;;5048823;28;20190;-46
2022/03/13 07:19:11;;;;;;;3.20;2.90;;;14.80;43.30;15.90;100694.00;;;;5049420;28;20224;-47
2022/03/13 07:21:38;;;;;;;3.70;3.23;;;14.70;43.20;15.90;100709.00;;;;5049447;28;20558;-47
2022/03/13 07:24:04;;;;;;;4.03;3.13;;;14.80;43.30;15.90;100721.00;;;;5049338;28;20167;-46
2022/03/13 07:26:30;;;;;;;3.63;3.10;;;14.70;43.30;15.80;100711.00;;;;5048413;28;20178;-46
2022/03/13 07:28:56;;;;;;;3.40;3.10;;;14.70;43.30;15.80;100716.00;;;;5048777;28;20588;-48
2022/03/13 07:31:21;;;;;;;3.47;3.17;;;14.70;43.30;15.90;100718.00;;;;5049541;28;20181;-44
2022/03/13 07:33:47;;;;;;;3.50;3.20;;;14.70;43.20;15.80;100714.00;;;;5049676;28;20171;-46
2022/03/13 07:36:13;;;;;;;4.30;3.17;;;14.70;43.80;15.80;100713.00;;;;5047407;28;20247;-45
2022/03/13 07:38:39;;;;;;;3.73;3.10;;;14.70;43.30;15.80;100719.00;;;;5049077;28;20179;-47
2022/03/13 07:41:05;;;;;;;3.10;2.80;;;14.70;43.20;15.80;100711.00;;;;5049644;28;20174;-47
2022/03/13 07:43:33;;;;;;;3.40;3.10;;;14.70;43.30;15.80;100721.00;;;;5050433;28;20586;-47
2022/03/13 07:45:58;;;;;;;3.70;3.20;;;14.70;43.30;15.80;100710.00;;;;5054581;28;20229;-46
2022/03/13 07:48:24;;;;;;;3.30;3.00;;;14.70;43.30;15.80;100720.00;;;;5052164;28;20698;-55
2022/03/13 07:50:50;;;;;;;3.30;3.07;;;14.70;43.30;15.80;100674.00;;;;5051705;28;20174;-46
2022/03/13 07:53:16;;;;;;;3.17;2.87;;;14.70;43.30;15.80;100714.00;;;;5052808;28;20170;-45
2022/03/13 07:55:42;;;;;;;3.40;3.10;;;14.70;43.30;15.80;100714.00;;;;5049870;28;20243;-48
2022/03/13 07:58:07;;;;;;;3.20;2.90;;;14.70;43.30;15.80;100717.00;;;;5048666;28;20626;-47
2022/03/13 08:00:33;;;;;;;3.00;2.80;;;14.70;43.30;15.80;100725.00;;;;5047921;28;20166;-48
2022/03/13 08:02:59;;;;;;;3.30;3.00;;;14.60;43.30;15.80;100719.00;;;;5048354;28;20737;-47
2022/03/13 08:05:25;;;;;;;3.40;3.10;;;14.70;43.30;15.80;100710.00;;;;5048421;28;20683;-48
2022/03/13 08:07:52;;;;;;;3.40;3.10;;;14.70;43.40;15.80;100714.00;;;;5048372;28;20220;-47
2022/03/13 08:10:20;;;;;;;3.03;2.73;;;14.70;43.30;15.80;100714.00;;;;5049594;28;20166;-47
2022/03/13 08:12:48;;;;;;;3.47;3.17;;;14.60;43.30;15.70;100722.00;;;;5069439;28;20178;-46
2022/03/13 08:15:14;;;;;;;3.27;3.00;;;14.60;43.30;15.80;100712.00;;;;5068716;28;20189;-48
2022/03/13 08:17:39;;;;;;;3.20;2.90;;;14.70;43.30;15.70;100717.00;;;;5070528;28;20522;-48
2022/03/13 08:20:06;;;;;;;3.47;3.17;;;14.60;43.30;15.70;100699.00;;;;5075692;28;20173;-47
2022/03/13 08:22:31;;;;;;;3.60;3.03;;;14.70;43.70;15.70;100721.00;;;;5068876;28;20197;-46
2022/03/13 08:24:57;;;;;;;3.30;3.00;;;14.70;44.00;15.70;100719.00;;;;5067008;28;20319;-47
2022/03/13 08:27:23;;;;;;;3.30;3.00;;;14.70;44.00;15.70;100707.00;;;;5066700;28;20177;-47
2022/03/13 08:29:49;;;;;;;3.30;3.00;;;14.70;44.00;15.70;100711.00;;;;5068153;28;20178;-47
2022/03/13 08:32:18;;;;;;;3.07;2.87;;;14.70;43.90;15.70;100707.00;;;;5068122;28;20170;-48
2022/03/13 08:34:45;;;;;;;3.30;3.00;;;14.70;44.10;15.70;100702.00;;;;5066315;28;20288;-46
2022/03/13 08:37:12;;;;;;;3.67;2.93;;;14.70;44.10;15.70;100704.00;;;;5060953;28;20170;-45
2022/03/13 08:39:38;;;;;;;3.83;3.07;;;14.60;44.10;15.70;100711.00;;;;5067267;28;20776;-46
2022/03/13 08:42:05;;;;;;;3.93;3.20;;;14.70;44.20;15.70;100708.00;;;;5054272;28;20202;-46
2022/03/13 08:44:30;;;;;;;6.37;3.20;;;14.60;43.90;15.70;100696.00;;;;5049605;28;20652;-47
2022/03/13 08:46:56;;;;;;;3.43;2.90;;;14.60;44.00;15.70;100691.00;;;;5048812;28;20185;-46
2022/03/13 08:49:22;;;;;;;5.63;3.20;;;14.60;44.30;15.70;100704.00;;;;5060086;28;20765;-45
2022/03/13 08:51:48;;;;;;;4.23;2.97;;;14.60;44.40;15.70;100715.00;;;;5066375;28;20176;-46
2022/03/13 08:54:16;;;;;;;4.43;3.30;;;14.50;44.40;15.70;100715.00;;;;5069013;28;20161;-45
2022/03/13 08:56:46;;;;;;;3.60;3.20;;;14.60;44.60;15.70;100713.00;;;;5068140;28;20177;-45
2022/03/13 08:59:12;;;;;;;5.07;3.23;;;14.60;44.40;15.70;100707.00;;;;5068835;28;20178;-45
2022/03/13 09:01:37;;;;;;;3.80;3.20;;;14.60;44.30;15.50;100710.00;;;;5057454;28;20240;-45
2022/03/13 09:04:03;;;;;;;4.17;3.60;;;14.60;44.40;15.70;100712.00;;;;5049331;28;20178;-48
2022/03/13 09:06:29;;;;;;;3.60;3.30;;;14.60;44.20;15.70;100702.00;;;;5050630;28;20166;-46
2022/03/13 09:08:55;;;;;;;4.30;3.90;;;14.60;44.10;15.70;100710.00;;;;5059137;28;20208;-47
2022/03/13 09:11:20;;;;;;;4.97;3.50;;;14.60;44.10;15.70;100705.00;;;;5068455;28;20181;-46
2022/03/13 09:13:46;;;;;;;6.17;3.73;;;14.70;44.10;15.70;100710.00;;;;5068364;28;20623;-47
2022/03/13 09:16:12;;;;;;;3.87;3.57;;;14.70;44.10;15.70;100707.00;;;;5067732;28;20194;-46
2022/03/13 09:18:38;;;;;;;6.67;3.60;;;14.60;44.00;15.70;100700.00;;;;5068478;28;20393;-47
2022/03/13 09:21:04;;;;;;;4.20;3.80;;;14.70;44.10;15.70;100698.00;;;;5068659;28;20651;-46
2022/03/13 09:23:30;;;;;;;4.03;3.67;;;14.60;44.00;15.70;100706.00;;;;5068504;28;20189;-46
2022/03/13 09:25:56;;;;;;;4.53;3.80;;;14.70;44.10;15.70;100707.00;;;;5067793;28;20181;-48
2022/03/13 09:28:22;;;;;;;5.90;3.70;;;14.70;44.10;15.70;100705.00;;;;5068042;28;20169;-46
2022/03/13 09:30:48;;;;;;;4.10;3.80;;;14.60;44.00;15.70;100702.00;;;;5054782;28;20178;-47
2022/03/13 09:33:14;;;;;;;4.73;3.90;;;14.60;44.00;15.70;100694.00;;;;5049241;28;20602;-47
2022/03/13 09:35:39;;;;;;;4.50;4.10;;;14.60;44.00;15.70;100693.00;;;;5048928;28;20194;-45
2022/03/13 09:38:05;;;;;;;4.60;4.20;;;14.60;44.10;15.70;100695.00;;;;5048522;28;20174;-46
2022/03/13 09:40:33;;;;;;;4.67;4.27;;;14.70;44.10;15.70;100700.00;;;;5048121;28;20663;-47
2022/03/13 09:43:05;;;;;;;4.50;4.10;;;14.60;43.90;15.70;100696.00;;;;5048476;28;20213;-48
2022/03/13 09:45:31;;;;;;;6.57;3.93;;;14.70;44.40;15.70;100695.00;;;;5048635;28;20188;-47
2022/03/13 09:47:57;;;;;;;3.97;3.67;;;14.60;44.30;15.70;100688.00;;;;5047772;28;20552;-46
2022/03/13 09:50:23;;;;;;;4.77;3.90;;;14.70;44.50;15.70;100691.00;;;;5047002;28;20182;-47
2022/03/13 09:52:48;;;;;;;4.43;3.97;;;14.60;44.30;15.70;100689.00;;;;5053488;28;20724;-48
2022/03/13 09:55:15;;;;;;;4.30;3.90;;;14.70;44.40;15.70;100689.00;;;;5052980;28;20202;-47
2022/03/13 09:57:41;;;;;;;4.40;4.00;;;14.70;44.40;15.70;100691.00;;;;5047276;28;20173;-47
2022/03/13 10:00:11;;;;;;;4.60;4.07;;;14.70;44.40;15.70;100691.00;;;;5046742;28;20231;-46
2022/03/13 10:02:39;;;;;;;4.67;4.17;;;14.60;44.40;15.70;100678.00;;;;5048077;28;20293;-45
2022/03/13 10:05:13;;;;;;;5.83;3.87;;;14.60;44.40;15.70;100676.00;;;;5047548;28;20259;-52
2022/03/13 10:08:08;;;;;;;5.60;3.80;;;14.60;44.60;15.70;100680.00;;;;5047255;28;20186;-45
2022/03/13 10:10:47;;;;;;;4.30;3.90;;;14.60;44.70;15.70;100679.00;;;;5046791;28;20253;-46
2022/03/13 10:13:15;;;;;;;4.00;3.70;;;14.70;44.80;15.70;100682.00;;;;5060074;28;20200;-47
2022/03/13 10:15:46;;;;;;;4.20;3.80;;;14.70;44.80;15.70;100668.00;;;;5070419;28;20193;-47
2022/03/13 10:18:23;;;;;;;4.03;3.63;;;14.70;44.80;15.70;100671.00;;;;5067773;28;20181;-47
2022/03/13 10:20:49;;;;;;;5.20;3.80;;;14.70;44.80;15.70;100676.00;;;;5067539;28;20196;-46
2022/03/13 10:23:22;;;;;;;7.20;4.10;;;14.70;44.80;15.70;100684.00;;;;5072465;28;20225;-45
2022/03/13 10:25:49;;;;;;;4.37;3.93;;;14.70;45.50;15.70;100674.00;;;;5071642;28;20236;-47
2022/03/13 10:28:25;;;;;;;11.73;4.13;;;14.70;44.90;15.70;100672.00;;;;5071423;28;20219;-45
2022/03/13 10:31:00;;;;;;;7.33;3.80;;;14.70;45.10;15.70;100670.00;;;;5057143;28;20261;-47
2022/03/13 10:33:43;;;;;;;9.03;4.00;;;14.80;45.20;15.70;100661.00;;;;5051340;28;20642;-47
2022/03/13 10:36:19;;;;;;;5.50;4.00;;;14.80;45.10;15.70;100654.00;;;;5052121;28;20220;-48
2022/03/13 10:38:46;;;;;;;6.43;3.80;;;14.80;45.10;15.70;100675.00;;;;5055327;28;20166;-45
2022/03/13 10:41:13;;;;;;;4.03;3.63;;;14.80;45.10;15.70;100661.00;;;;5051634;28;20693;-46
2022/03/13 10:43:57;;;;;;;4.53;3.97;;;14.80;45.20;15.80;100659.00;;;;5050977;28;20280;-47
2022/03/13 10:46:36;;;;;;;4.10;3.67;;;14.80;45.30;15.80;100636.00;;;;5050960;28;20194;-47